Time;durP1;ratioP1;P1;durP2;ratioP2;P2;SDS_P1;SDS_P2;PMS_P1;PMS_P2;Temp;Humidity;BMP_temperature;BMP_pressure;BME280_temperature;BME280_humidity;BME280_pressure;Samples;Min_cycle;Max_cycle;Signal;HPM_P1;HPM_P2
2021/11/06 00:01:42;;;;;;;17.03;9.27;;;7.10;99.90;;;;;;5004352;28;20307;-89
2021/11/06 00:04:09;;;;;;;19.07;10.13;;;7.00;99.90;;;;;;5012575;28;20319;-90
2021/11/06 00:06:36;;;;;;;18.60;8.47;;;7.00;99.90;;;;;;5002784;28;20756;-89
2021/11/06 00:09:04;;;;;;;24.43;11.97;;;7.10;99.90;;;;;;5003542;28;20345;-89
2021/11/06 00:11:31;;;;;;;16.23;9.27;;;7.10;99.90;;;;;;5009270;28;20209;-89
2021/11/06 00:13:59;;;;;;;19.83;9.47;;;7.10;99.90;;;;;;5009391;28;20213;-88
2021/11/06 00:16:27;;;;;;;18.03;9.03;;;7.00;99.90;;;;;;5008621;28;20204;-90
2021/11/06 00:18:54;;;;;;;18.90;9.27;;;7.00;99.90;;;;;;5012617;28;20313;-89
2021/11/06 00:21:21;;;;;;;19.67;9.63;;;7.00;99.90;;;;;;5003924;28;20682;-90
2021/11/06 00:23:48;;;;;;;18.07;9.33;;;7.00;99.90;;;;;;5006859;28;20212;-89
2021/11/06 00:26:15;;;;;;;19.20;8.90;;;7.00;99.90;;;;;;5007823;28;20295;-89
2021/11/06 00:28:42;;;;;;;17.70;9.80;;;7.10;99.90;;;;;;5012872;28;20243;-89
2021/11/06 00:31:11;;;;;;;16.83;9.10;;;7.10;99.90;;;;;;5007131;28;21195;-90
2021/11/06 00:33:38;;;;;;;18.20;10.23;;;7.10;99.90;;;;;;5019822;28;20207;-89
2021/11/06 00:48:43;;;;;;;19.43;10.20;;;7.30;99.90;;;;;;5069704;27;20569;-71
2021/11/06 00:51:10;;;;;;;18.43;9.90;;;7.70;99.90;;;;;;5065099;28;20202;-71
2021/11/06 00:53:37;;;;;;;16.83;9.00;;;7.80;99.90;;;;;;5064277;28;20222;-72
2021/11/06 00:56:05;;;;;;;17.67;9.73;;;7.70;99.90;;;;;;5063655;28;20210;-71
2021/11/06 00:58:32;;;;;;;17.50;9.27;;;7.80;99.90;;;;;;5062327;28;20202;-71
2021/11/06 01:00:59;;;;;;;15.33;9.20;;;7.80;99.90;;;;;;5064469;28;20351;-71
2021/11/06 01:03:26;;;;;;;17.10;9.57;;;7.70;99.90;;;;;;5062368;28;20651;-72
2021/11/06 01:05:54;;;;;;;18.47;9.70;;;7.70;99.90;;;;;;5064254;28;20549;-71
2021/11/06 01:08:21;;;;;;;16.37;8.93;;;7.70;99.90;;;;;;5063323;28;20221;-71
2021/11/06 01:10:48;;;;;;;19.03;11.90;;;7.70;99.90;;;;;;5064454;28;20191;-72
2021/11/06 01:13:17;;;;;;;22.53;12.53;;;7.60;99.90;;;;;;5062231;28;20203;-72
2021/11/06 01:15:44;;;;;;;17.07;8.70;;;7.60;99.90;;;;;;5063978;28;20244;-72
2021/11/06 01:18:11;;;;;;;15.43;9.97;;;7.60;99.90;;;;;;5063335;28;20219;-72
2021/11/06 01:20:38;;;;;;;15.97;8.80;;;7.50;99.90;;;;;;5063536;28;20194;-72
2021/11/06 01:23:07;;;;;;;19.23;10.53;;;7.50;99.90;;;;;;5062963;28;20237;-73
2021/11/06 01:25:34;;;;;;;18.93;11.53;;;7.30;99.90;;;;;;5063127;28;20199;-72
2021/11/06 01:28:01;;;;;;;17.13;9.43;;;7.30;99.90;;;;;;5062230;28;20194;-72
2021/11/06 01:30:28;;;;;;;16.60;8.20;;;7.40;99.90;;;;;;5063261;28;20206;-72
2021/11/06 01:32:55;;;;;;;18.57;9.43;;;7.30;99.90;;;;;;5063194;28;20198;-72
2021/11/06 01:35:22;;;;;;;17.53;9.23;;;7.40;99.90;;;;;;5067238;28;20208;-72
2021/11/06 01:37:49;;;;;;;17.70;9.40;;;7.30;99.90;;;;;;5065382;28;20220;-72
2021/11/06 01:40:20;;;;;;;16.50;9.27;;;7.40;99.90;;;;;;5063415;28;20198;-72
2021/11/06 01:42:48;;;;;;;16.53;9.03;;;7.40;99.90;;;;;;5060763;28;20195;-72
2021/11/06 01:45:17;;;;;;;17.03;9.70;;;7.30;99.90;;;;;;5062495;28;20207;-69
2021/11/06 01:47:45;;;;;;;16.83;9.03;;;7.30;99.90;;;;;;5058109;28;20310;-69
2021/11/06 01:50:12;;;;;;;12.97;8.57;;;7.20;99.90;;;;;;5049391;28;20297;-68
2021/11/06 01:52:40;;;;;;;17.27;9.63;;;7.00;99.90;;;;;;5048681;28;20214;-68
2021/11/06 01:55:08;;;;;;;15.57;9.00;;;7.00;99.90;;;;;;5050179;28;20300;-69
2021/11/06 01:57:38;;;;;;;14.33;8.53;;;7.10;99.90;;;;;;5049663;28;20218;-69
2021/11/06 02:00:07;;;;;;;18.70;9.60;;;7.00;99.90;;;;;;5051069;28;20284;-69
2021/11/06 02:02:34;;;;;;;19.00;8.83;;;6.90;99.90;;;;;;5054705;28;20199;-68
2021/11/06 02:05:01;;;;;;;18.70;8.43;;;6.80;99.90;;;;;;5053185;28;20199;-69
2021/11/06 02:07:28;;;;;;;15.07;8.17;;;6.70;99.90;;;;;;5053597;28;20290;-68
2021/11/06 02:09:55;;;;;;;15.00;9.23;;;6.60;99.90;;;;;;5050300;28;20205;-68
2021/11/06 02:12:22;;;;;;;17.67;8.83;;;6.70;99.90;;;;;;5050988;28;20257;-69
2021/11/06 02:14:50;;;;;;;21.33;9.73;;;6.60;99.90;;;;;;5049958;28;20203;-69
2021/11/06 02:17:17;;;;;;;16.97;9.37;;;6.70;99.90;;;;;;5050193;28;20227;-69
2021/11/06 02:19:44;;;;;;;16.50;9.87;;;6.60;99.90;;;;;;5048860;28;20207;-69
2021/11/06 02:22:13;;;;;;;16.60;9.50;;;6.50;99.90;;;;;;5050691;28;20209;-69
2021/11/06 02:24:41;;;;;;;18.17;11.33;;;6.60;99.90;;;;;;5053155;28;20256;-69
2021/11/06 02:27:08;;;;;;;16.80;10.70;;;6.60;99.90;;;;;;5060322;28;20206;-69
2021/11/06 02:29:36;;;;;;;18.97;11.10;;;6.60;99.90;;;;;;5053621;28;20210;-69
2021/11/06 02:32:04;;;;;;;18.70;11.07;;;6.70;99.90;;;;;;5063606;28;20194;-69
2021/11/06 02:34:31;;;;;;;19.07;11.57;;;6.70;99.90;;;;;;5052772;28;20199;-69
2021/11/06 02:36:58;;;;;;;20.87;11.53;;;6.80;99.90;;;;;;5053777;28;20246;-69
2021/11/06 02:39:26;;;;;;;20.53;11.63;;;6.70;99.90;;;;;;5047434;28;20475;-70
2021/11/06 02:41:59;;;;;;;18.73;12.30;;;6.80;99.90;;;;;;5053373;28;20568;-69
2021/11/06 02:44:27;;;;;;;24.23;12.70;;;6.90;99.90;;;;;;5051266;28;20244;-69
2021/11/06 02:46:54;;;;;;;19.50;11.00;;;6.90;99.90;;;;;;5053957;28;20207;-70
2021/11/06 02:49:21;;;;;;;20.50;12.10;;;6.80;99.90;;;;;;5052357;28;20637;-69
2021/11/06 02:51:48;;;;;;;22.80;12.47;;;6.80;99.90;;;;;;5053177;28;20225;-69
2021/11/06 02:54:15;;;;;;;24.70;13.37;;;6.80;99.90;;;;;;5057238;28;20208;-69
2021/11/06 02:56:43;;;;;;;23.57;14.30;;;6.70;99.90;;;;;;5073266;28;20209;-70
2021/11/06 02:59:10;;;;;;;22.77;12.93;;;6.80;99.90;;;;;;5053245;28;20214;-70
2021/11/06 03:01:37;;;;;;;21.77;12.57;;;6.60;99.90;;;;;;5052780;28;20203;-70
2021/11/06 03:04:08;;;;;;;20.97;12.23;;;6.70;99.90;;;;;;5056168;28;20655;-70
2021/11/06 03:06:35;;;;;;;21.70;13.20;;;6.60;99.90;;;;;;5053931;28;20260;-69
2021/11/06 03:09:03;;;;;;;24.93;13.10;;;6.60;99.90;;;;;;5052331;28;20257;-70
2021/11/06 03:11:30;;;;;;;23.50;13.03;;;6.70;99.90;;;;;;5053621;28;20203;-70
2021/11/06 03:14:00;;;;;;;22.20;13.53;;;6.70;99.90;;;;;;5062243;28;20202;-70
2021/11/06 03:16:26;;;;;;;22.43;12.43;;;6.80;99.90;;;;;;5053154;28;20656;-70
2021/11/06 03:18:53;;;;;;;21.10;13.13;;;6.70;99.90;;;;;;5064364;28;20222;-70
2021/11/06 03:21:21;;;;;;;21.87;12.60;;;6.90;99.90;;;;;;5073059;28;20679;-70
2021/11/06 03:23:48;;;;;;;19.63;12.20;;;6.80;99.90;;;;;;5065702;28;20195;-69
2021/11/06 03:26:16;;;;;;;18.73;11.57;;;6.60;99.90;;;;;;5052682;28;20544;-70
2021/11/06 03:28:43;;;;;;;17.13;11.17;;;6.60;99.90;;;;;;5059223;28;20563;-70
2021/11/06 03:31:11;;;;;;;21.07;11.70;;;6.60;99.90;;;;;;5053083;28;20202;-70
2021/11/06 03:33:38;;;;;;;15.90;10.63;;;6.60;99.90;;;;;;5061078;28;20199;-70
2021/11/06 03:36:05;;;;;;;18.77;11.17;;;6.60;99.90;;;;;;5044543;28;20204;-70
2021/11/06 03:38:32;;;;;;;22.57;12.37;;;6.80;99.90;;;;;;5049451;28;20214;-70
2021/11/06 03:40:59;;;;;;;19.03;13.07;;;6.90;99.90;;;;;;5073358;28;20206;-69
2021/11/06 03:43:26;;;;;;;17.73;11.20;;;6.90;99.90;;;;;;5067509;28;20197;-70
2021/11/06 03:45:53;;;;;;;19.97;12.03;;;6.80;99.90;;;;;;5051921;28;20203;-70
2021/11/06 03:48:22;;;;;;;22.80;13.17;;;7.00;99.90;;;;;;5054988;28;20213;-70
2021/11/06 03:50:48;;;;;;;19.13;11.50;;;7.00;99.90;;;;;;5072670;28;20211;-70
2021/11/06 03:53:15;;;;;;;17.27;11.33;;;7.00;99.90;;;;;;5069062;28;20203;-70
2021/11/06 03:55:42;;;;;;;20.60;11.27;;;7.00;99.90;;;;;;5051841;28;20195;-70
2021/11/06 03:58:09;;;;;;;18.53;11.40;;;6.90;99.90;;;;;;5051231;28;20234;-70
2021/11/06 04:00:36;;;;;;;19.00;11.83;;;6.90;99.90;;;;;;5072849;28;20209;-70
2021/11/06 04:03:03;;;;;;;17.30;11.13;;;6.70;99.90;;;;;;5053015;28;20209;-70
2021/11/06 04:05:31;;;;;;;18.37;11.87;;;6.70;99.90;;;;;;5068868;28;20206;-70
2021/11/06 04:07:58;;;;;;;19.83;12.47;;;6.90;99.90;;;;;;5036472;28;20205;-70
2021/11/06 04:10:26;;;;;;;18.53;12.57;;;7.00;99.90;;;;;;5051333;28;20202;-69
2021/11/06 04:12:53;;;;;;;22.17;12.33;;;7.20;99.90;;;;;;5051643;28;20257;-70
2021/11/06 04:15:20;;;;;;;19.57;13.00;;;7.20;99.90;;;;;;5067716;28;20198;-70
2021/11/06 04:17:47;;;;;;;19.97;12.47;;;7.20;99.90;;;;;;5051228;28;20724;-70
2021/11/06 04:20:14;;;;;;;16.87;11.47;;;7.30;99.90;;;;;;5069203;28;20194;-70
2021/11/06 04:22:42;;;;;;;17.20;12.23;;;7.40;99.90;;;;;;5050223;28;20571;-70
2021/11/06 04:25:10;;;;;;;18.83;11.93;;;7.40;99.90;;;;;;5056453;28;20217;-70
2021/11/06 04:27:37;;;;;;;19.70;12.60;;;7.50;99.90;;;;;;5051068;28;20195;-70
2021/11/06 04:30:05;;;;;;;21.53;14.00;;;7.60;99.90;;;;;;5052023;28;20198;-70
2021/11/06 04:32:32;;;;;;;19.97;12.40;;;7.80;99.90;;;;;;5051866;28;20205;-70
2021/11/06 04:34:59;;;;;;;18.30;12.70;;;7.80;99.90;;;;;;5051266;28;20661;-70
2021/11/06 04:37:26;;;;;;;20.63;13.20;;;7.80;99.90;;;;;;5051021;28;20237;-70
2021/11/06 04:39:54;;;;;;;17.47;12.80;;;7.80;99.90;;;;;;5051368;28;20205;-70
2021/11/06 04:42:21;;;;;;;18.30;11.47;;;7.90;99.90;;;;;;5052066;28;20206;-70
2021/11/06 04:44:48;;;;;;;18.43;12.10;;;7.90;99.90;;;;;;5063076;28;20563;-70
2021/11/06 04:47:15;;;;;;;17.10;11.57;;;8.00;99.90;;;;;;5050939;28;20221;-70
2021/11/06 04:49:42;;;;;;;18.53;12.57;;;8.00;99.90;;;;;;5051317;28;20645;-69
2021/11/06 04:52:09;;;;;;;18.50;11.63;;;8.00;99.90;;;;;;5051701;28;20205;-70
2021/11/06 04:54:36;;;;;;;18.20;12.13;;;8.00;99.90;;;;;;5050605;28;20213;-70
2021/11/06 04:57:05;;;;;;;20.07;12.80;;;8.00;99.90;;;;;;5065258;28;20198;-69
2021/11/06 04:59:32;;;;;;;18.37;11.73;;;8.00;99.90;;;;;;5051266;28;20226;-70
2021/11/06 05:02:00;;;;;;;18.03;12.27;;;8.00;99.90;;;;;;5051232;28;20195;-70
2021/11/06 05:04:28;;;;;;;17.40;11.67;;;8.00;99.90;;;;;;5050683;28;20656;-70
2021/11/06 05:06:55;;;;;;;18.83;12.03;;;8.00;99.90;;;;;;5051405;28;20195;-70
2021/11/06 05:09:22;;;;;;;18.00;12.20;;;8.00;99.90;;;;;;5062685;28;20209;-69
2021/11/06 05:11:49;;;;;;;17.33;11.63;;;7.90;99.90;;;;;;5056598;28;20649;-69
2021/11/06 05:14:18;;;;;;;17.77;12.07;;;7.90;99.90;;;;;;5052153;28;20211;-69
2021/11/06 05:16:44;;;;;;;19.17;11.87;;;7.90;99.90;;;;;;5051208;28;20286;-69
2021/11/06 05:19:11;;;;;;;19.90;12.47;;;7.80;99.90;;;;;;5060008;28;20680;-70
2021/11/06 05:21:38;;;;;;;19.30;12.40;;;7.80;99.90;;;;;;5059813;28;20191;-69
2021/11/06 05:24:06;;;;;;;18.93;12.17;;;7.80;99.90;;;;;;5057302;28;20287;-69
2021/11/06 05:26:34;;;;;;;18.60;12.17;;;7.80;99.90;;;;;;5069752;28;20191;-69
2021/11/06 05:29:04;;;;;;;21.77;12.60;;;7.80;99.90;;;;;;5059021;28;20195;-69
2021/11/06 05:31:32;;;;;;;20.97;12.73;;;7.80;99.90;;;;;;5055195;28;20195;-70
2021/11/06 05:34:00;;;;;;;19.57;13.27;;;7.80;99.90;;;;;;5056117;28;20195;-69
2021/11/06 05:36:27;;;;;;;18.53;11.93;;;7.80;99.90;;;;;;5055567;28;20555;-70
2021/11/06 05:38:54;;;;;;;21.27;13.40;;;7.70;99.90;;;;;;5054029;28;20214;-69
2021/11/06 05:41:21;;;;;;;19.40;12.70;;;7.80;99.90;;;;;;5054435;28;20203;-69
2021/11/06 05:43:48;;;;;;;19.73;13.30;;;7.80;99.90;;;;;;5056439;28;20205;-69
2021/11/06 05:46:16;;;;;;;19.67;12.00;;;7.90;99.90;;;;;;5055017;28;20541;-69
2021/11/06 05:48:44;;;;;;;16.97;11.23;;;7.90;99.90;;;;;;5056019;28;20554;-70
2021/11/06 05:51:11;;;;;;;18.23;11.23;;;7.80;99.90;;;;;;5071072;28;20201;-69
2021/11/06 05:53:38;;;;;;;16.40;10.80;;;7.90;99.90;;;;;;5057891;28;20195;-69
2021/11/06 05:56:05;;;;;;;17.67;10.80;;;8.00;99.90;;;;;;5054872;28;20203;-70
2021/11/06 05:58:32;;;;;;;16.67;10.57;;;8.00;99.90;;;;;;5059010;28;20672;-69
2021/11/06 06:00:59;;;;;;;21.13;11.03;;;8.00;99.90;;;;;;5075233;28;20727;-69
2021/11/06 06:03:26;;;;;;;18.67;10.87;;;8.00;99.90;;;;;;5070835;28;20195;-70
2021/11/06 06:05:54;;;;;;;16.00;10.20;;;7.90;99.90;;;;;;5054298;28;20294;-69
2021/11/06 06:08:22;;;;;;;17.70;10.50;;;7.90;99.90;;;;;;5055972;28;20651;-70
2021/11/06 06:10:49;;;;;;;17.40;10.43;;;7.80;99.90;;;;;;5074883;28;20202;-69
2021/11/06 06:13:16;;;;;;;14.33;9.83;;;7.80;99.90;;;;;;5072880;28;20199;-70
2021/11/06 06:15:43;;;;;;;21.33;11.80;;;7.80;99.90;;;;;;5054568;28;20199;-70
2021/11/06 06:18:11;;;;;;;17.30;11.23;;;7.70;99.90;;;;;;5053525;28;20229;-70
2021/11/06 06:20:38;;;;;;;21.13;12.27;;;7.80;99.90;;;;;;5034803;28;20684;-69
2021/11/06 06:23:07;;;;;;;23.70;13.00;;;7.80;99.90;;;;;;5034702;28;20654;-69
2021/11/06 06:25:34;;;;;;;24.83;14.07;;;7.80;99.90;;;;;;5057122;28;20665;-69
2021/11/06 06:28:03;;;;;;;20.87;12.50;;;7.90;99.90;;;;;;5053286;28;20206;-69
2021/11/06 06:30:30;;;;;;;23.90;13.53;;;7.90;99.90;;;;;;5054120;28;20209;-69
2021/11/06 06:32:57;;;;;;;24.63;15.37;;;7.90;99.90;;;;;;5054002;28;20222;-69
2021/11/06 06:35:24;;;;;;;23.33;14.90;;;7.90;99.90;;;;;;5054040;28;20195;-70
2021/11/06 06:37:51;;;;;;;24.67;15.13;;;7.90;99.90;;;;;;5053127;28;20984;-69
2021/11/06 06:40:19;;;;;;;26.07;15.93;;;7.90;99.90;;;;;;5056930;28;20201;-69
2021/11/06 06:42:46;;;;;;;25.60;15.33;;;7.80;99.90;;;;;;5053947;28;20205;-69
2021/11/06 06:45:13;;;;;;;27.07;15.60;;;7.80;99.90;;;;;;5060897;28;20285;-69
2021/11/06 06:47:40;;;;;;;24.90;15.70;;;7.80;99.90;;;;;;5056567;28;20213;-69
2021/11/06 06:50:09;;;;;;;25.07;15.37;;;7.80;99.90;;;;;;5053577;28;20206;-70
2021/11/06 06:52:36;;;;;;;22.63;13.53;;;7.70;99.90;;;;;;5053284;28;20291;-69
2021/11/06 06:55:04;;;;;;;30.30;17.00;;;7.60;99.90;;;;;;5053914;28;20214;-69
2021/11/06 06:57:33;;;;;;;21.40;14.50;;;7.70;99.90;;;;;;5052230;28;20199;-69
2021/11/06 07:00:00;;;;;;;25.47;15.27;;;7.70;99.90;;;;;;5053423;28;20230;-70
2021/11/06 07:02:27;;;;;;;22.70;14.17;;;7.70;99.90;;;;;;5053850;28;20215;-69
2021/11/06 07:04:53;;;;;;;21.87;13.53;;;7.80;99.90;;;;;;5053459;28;20203;-69
2021/11/06 07:07:20;;;;;;;23.77;14.53;;;7.80;99.90;;;;;;5052123;28;20629;-69
2021/11/06 07:09:47;;;;;;;24.83;14.37;;;7.90;99.90;;;;;;5053232;28;20208;-70
2021/11/06 07:12:14;;;;;;;26.40;13.97;;;7.90;99.90;;;;;;5053506;28;20293;-69
2021/11/06 07:14:42;;;;;;;23.03;14.73;;;8.00;99.90;;;;;;5053281;28;20203;-69
2021/11/06 07:17:09;;;;;;;24.43;13.00;;;8.00;99.90;;;;;;5053868;28;20195;-70
2021/11/06 07:19:36;;;;;;;19.30;11.73;;;8.10;99.90;;;;;;5052552;28;20218;-78
2021/11/06 07:22:05;;;;;;;21.40;12.03;;;8.20;99.90;;;;;;5054222;28;20195;-78
2021/11/06 07:24:32;;;;;;;17.13;11.43;;;8.20;99.90;;;;;;5053485;28;20187;-78
2021/11/06 07:27:00;;;;;;;21.53;11.27;;;8.30;99.90;;;;;;5053271;28;20202;-78
2021/11/06 07:29:28;;;;;;;18.63;11.43;;;8.30;99.90;;;;;;5048595;28;20668;-78
2021/11/06 07:31:56;;;;;;;15.80;9.50;;;8.40;99.90;;;;;;5059112;28;20194;-78
2021/11/06 07:34:23;;;;;;;14.93;8.93;;;8.50;99.90;;;;;;5073709;28;20558;-79
2021/11/06 07:36:51;;;;;;;15.47;9.37;;;8.50;99.90;;;;;;5067078;28;20556;-78
2021/11/06 07:39:18;;;;;;;18.43;9.50;;;8.50;99.90;;;;;;5057847;28;20229;-78
2021/11/06 07:41:45;;;;;;;16.70;8.83;;;8.50;99.90;;;;;;5067409;28;20194;-79
2021/11/06 07:44:13;;;;;;;11.80;7.60;;;8.50;99.90;;;;;;5072837;28;20190;-79
2021/11/06 07:46:40;;;;;;;15.80;7.77;;;8.50;99.90;;;;;;5072075;28;20297;-78
2021/11/06 07:49:08;;;;;;;16.00;7.93;;;8.50;99.90;;;;;;5057708;28;20211;-78
2021/11/06 07:51:36;;;;;;;14.20;8.10;;;8.60;99.90;;;;;;5073219;28;20656;-79
2021/11/06 07:54:03;;;;;;;16.70;8.10;;;8.70;99.90;;;;;;5072453;28;20190;-78
2021/11/06 07:56:32;;;;;;;13.60;7.30;;;8.80;99.90;;;;;;5072985;28;20667;-78
2021/11/06 07:58:59;;;;;;;15.07;8.03;;;8.80;99.90;;;;;;5057418;28;20294;-79
2021/11/06 08:01:26;;;;;;;15.67;8.77;;;8.80;99.90;;;;;;5035185;28;20694;-78
2021/11/06 08:03:53;;;;;;;14.73;8.93;;;8.80;99.90;;;;;;5066294;28;20237;-79
2021/11/06 08:06:22;;;;;;;16.10;7.83;;;8.80;99.90;;;;;;5060419;28;20203;-79
2021/11/06 08:08:49;;;;;;;14.80;7.30;;;8.90;99.90;;;;;;5050614;28;20198;-79
2021/11/06 08:11:17;;;;;;;9.17;6.00;;;8.90;99.90;;;;;;5053263;28;20199;-78
2021/11/06 08:13:44;;;;;;;11.17;5.93;;;8.90;99.90;;;;;;5032700;28;20559;-78
2021/11/06 08:16:11;;;;;;;13.33;5.97;;;9.00;99.90;;;;;;5059776;28;20199;-78
2021/11/06 08:18:38;;;;;;;12.57;5.07;;;9.00;99.90;;;;;;5051568;28;20214;-79
2021/11/06 08:21:06;;;;;;;8.83;5.23;;;9.00;99.90;;;;;;5052631;28;20190;-78
2021/11/06 08:23:34;;;;;;;10.00;5.03;;;9.10;99.90;;;;;;5052481;28;20187;-79
2021/11/06 08:26:01;;;;;;;9.97;4.97;;;9.10;99.90;;;;;;5062242;28;20191;-78
2021/11/06 08:28:28;;;;;;;9.37;4.77;;;9.20;99.90;;;;;;5051943;28;20657;-79
2021/11/06 08:30:55;;;;;;;8.60;5.03;;;9.20;99.90;;;;;;5053290;28;20187;-79
2021/11/06 08:33:22;;;;;;;9.20;5.57;;;9.30;99.90;;;;;;5052790;28;20206;-79
2021/11/06 08:35:49;;;;;;;13.73;7.00;;;9.40;99.90;;;;;;5052790;28;20645;-78
2021/11/06 08:38:16;;;;;;;13.03;6.53;;;9.30;99.90;;;;;;5052446;28;20195;-78
2021/11/06 08:40:45;;;;;;;12.43;7.17;;;9.30;99.90;;;;;;5052472;28;20530;-79
2021/11/06 08:43:12;;;;;;;9.97;5.50;;;9.30;99.90;;;;;;5052914;28;20191;-79
2021/11/06 08:45:39;;;;;;;10.60;6.67;;;9.40;99.90;;;;;;5061375;28;20198;-79
2021/11/06 08:48:06;;;;;;;16.30;6.83;;;9.40;99.90;;;;;;5051555;28;20218;-78
2021/11/06 08:50:34;;;;;;;10.97;7.00;;;9.40;99.90;;;;;;5052144;28;20191;-78
2021/11/06 08:53:00;;;;;;;13.23;6.50;;;9.40;99.90;;;;;;5051867;28;20191;-79
2021/11/06 08:55:28;;;;;;;11.47;6.27;;;9.40;99.90;;;;;;5052401;28;20712;-79
2021/11/06 08:57:58;;;;;;;13.63;7.07;;;9.40;99.90;;;;;;5052171;28;20328;-78
2021/11/06 09:00:31;;;;;;;12.47;6.90;;;9.40;99.90;;;;;;5056270;28;20202;-78
2021/11/06 09:02:59;;;;;;;17.43;7.10;;;9.40;99.90;;;;;;5054820;28;20243;-79
2021/11/06 09:05:27;;;;;;;11.97;6.30;;;9.50;99.90;;;;;;5048831;28;20194;-78
2021/11/06 09:07:54;;;;;;;12.63;5.77;;;9.50;99.90;;;;;;5067629;28;20210;-79
2021/11/06 09:10:22;;;;;;;11.43;6.27;;;9.70;99.90;;;;;;5065116;28;20183;-79
2021/11/06 09:12:49;;;;;;;10.80;5.97;;;9.50;99.90;;;;;;5075822;28;20217;-79
2021/11/06 09:15:18;;;;;;;11.90;6.93;;;9.60;99.90;;;;;;5075893;28;20198;-79
2021/11/06 09:17:45;;;;;;;10.93;6.33;;;9.60;99.90;;;;;;5059058;28;20199;-79
2021/11/06 09:20:13;;;;;;;13.57;6.83;;;9.70;99.90;;;;;;5055860;28;20574;-78
2021/11/06 09:22:41;;;;;;;13.10;7.23;;;9.70;99.90;;;;;;5056097;28;20187;-78
2021/11/06 09:25:10;;;;;;;12.23;6.90;;;9.70;99.90;;;;;;5055768;28;20542;-78
2021/11/06 09:27:37;;;;;;;10.47;6.17;;;9.60;99.90;;;;;;5055291;28;20222;-78
2021/11/06 09:30:06;;;;;;;12.13;6.00;;;9.50;99.90;;;;;;5060442;28;20183;-79
2021/11/06 09:32:34;;;;;;;12.07;5.97;;;9.60;99.90;;;;;;5056121;28;20202;-79
2021/11/06 09:35:01;;;;;;;11.97;5.70;;;9.50;99.90;;;;;;5055447;28;20209;-78
2021/11/06 09:37:28;;;;;;;11.73;5.53;;;9.40;99.90;;;;;;5061097;28;20194;-78
2021/11/06 09:39:56;;;;;;;7.80;4.50;;;9.40;99.90;;;;;;5057585;28;20213;-78
2021/11/06 09:42:23;;;;;;;11.10;5.80;;;9.30;99.90;;;;;;5055655;28;20556;-78
2021/11/06 09:44:51;;;;;;;9.67;4.90;;;9.30;99.90;;;;;;5038412;28;20562;-78
2021/11/06 09:47:21;;;;;;;9.30;5.33;;;9.30;99.90;;;;;;5056329;28;20215;-78
2021/11/06 09:49:49;;;;;;;8.63;5.17;;;9.40;99.90;;;;;;5055184;28;20191;-78
2021/11/06 09:52:16;;;;;;;10.13;5.60;;;9.40;99.90;;;;;;5055090;28;20282;-79
2021/11/06 09:54:44;;;;;;;9.77;5.00;;;9.40;99.90;;;;;;5055239;28;20693;-78
2021/11/06 09:57:11;;;;;;;9.17;4.87;;;9.40;99.90;;;;;;5054886;28;20205;-78
2021/11/06 09:59:38;;;;;;;11.47;5.43;;;9.40;99.90;;;;;;5054940;28;20225;-78
2021/11/06 10:02:05;;;;;;;10.10;5.27;;;9.40;99.90;;;;;;5055237;28;20275;-77
2021/11/06 10:04:38;;;;;;;10.43;5.80;;;9.40;99.90;;;;;;5065037;28;20205;-78
2021/11/06 10:07:16;;;;;;;12.10;6.33;;;9.40;99.90;;;;;;5059884;28;20554;-78
2021/11/06 10:09:59;;;;;;;12.97;5.77;;;9.40;99.90;;;;;;5052539;28;20191;-78
2021/11/06 10:12:26;;;;;;;9.50;5.80;;;9.40;99.90;;;;;;5054158;28;20559;-78
2021/11/06 10:15:05;;;;;;;11.83;6.37;;;9.40;99.90;;;;;;5075075;28;20202;-78
2021/11/06 10:17:34;;;;;;;11.30;6.13;;;9.40;99.90;;;;;;5058336;28;20726;-78
2021/11/06 10:20:22;;;;;;;10.07;5.10;;;9.40;99.90;;;;;;5074670;28;20313;-78
2021/11/06 10:22:51;;;;;;;8.83;5.30;;;9.30;99.90;;;;;;5059513;28;20210;-78
2021/11/06 10:25:19;;;;;;;11.83;5.47;;;9.40;99.90;;;;;;5056722;28;20563;-78
2021/11/06 10:27:51;;;;;;;11.87;5.47;;;9.40;99.90;;;;;;5061835;28;20636;-79
2021/11/06 10:30:24;;;;;;;11.00;6.57;;;9.40;99.90;;;;;;5062631;28;20649;-78
2021/11/06 10:33:01;;;;;;;10.83;5.27;;;9.40;99.90;;;;;;5054486;28;20206;-78
2021/11/06 10:35:31;;;;;;;9.27;5.13;;;9.40;99.90;;;;;;5040369;28;20199;-78
2021/11/06 10:38:01;;;;;;;11.90;5.97;;;9.40;99.90;;;;;;5054513;28;20309;-77
2021/11/06 10:40:31;;;;;;;11.57;6.40;;;9.40;99.90;;;;;;5054790;28;20207;-78
2021/11/06 10:43:00;;;;;;;15.10;6.33;;;9.40;99.90;;;;;;5050905;28;20241;-78
2021/11/06 10:45:32;;;;;;;14.20;5.93;;;9.30;99.90;;;;;;5049773;28;20200;-78
2021/11/06 10:48:03;;;;;;;11.53;6.50;;;9.30;99.90;;;;;;5053192;28;20294;-78
2021/11/06 10:50:49;;;;;;;13.03;6.67;;;9.30;99.90;;;;;;5049188;28;20184;-77
2021/11/06 10:53:34;;;;;;;10.23;6.20;;;9.20;99.90;;;;;;5049381;28;20260;-78
2021/11/06 10:56:03;;;;;;;10.33;6.30;;;9.30;99.90;;;;;;5052411;28;20649;-70
2021/11/06 10:58:33;;;;;;;12.53;6.33;;;9.30;99.90;;;;;;5049287;28;20563;-70
2021/11/06 11:01:04;;;;;;;12.93;7.40;;;9.30;99.90;;;;;;5053393;28;20242;-70
2021/11/06 11:03:33;;;;;;;12.00;6.80;;;9.40;99.90;;;;;;5053858;28;20211;-70
2021/11/06 11:06:01;;;;;;;12.87;6.77;;;9.40;99.90;;;;;;5051106;28;20257;-70
2021/11/06 11:08:30;;;;;;;9.40;6.00;;;9.40;99.90;;;;;;5040233;28;20206;-70
2021/11/06 11:11:06;;;;;;;8.67;5.87;;;9.40;99.90;;;;;;5044342;28;20626;-70
2021/11/06 11:13:33;;;;;;;10.63;5.30;;;9.40;99.90;;;;;;5053076;28;20206;-70
2021/11/06 11:16:14;;;;;;;12.57;6.57;;;9.50;99.90;;;;;;5034797;28;20210;-70
2021/11/06 11:18:41;;;;;;;11.23;5.23;;;9.40;99.90;;;;;;5052825;28;20203;-70
2021/11/06 11:21:15;;;;;;;7.67;4.77;;;9.40;99.90;;;;;;5043785;28;20665;-70
2021/11/06 11:23:45;;;;;;;9.57;5.97;;;9.40;99.90;;;;;;5052119;28;20294;-70
2021/11/06 11:26:14;;;;;;;11.00;6.57;;;9.40;99.90;;;;;;5052078;28;20207;-70
2021/11/06 11:28:41;;;;;;;11.00;5.70;;;9.50;99.90;;;;;;5053408;28;20344;-70
2021/11/06 11:31:08;;;;;;;9.90;5.03;;;9.50;99.90;;;;;;5044174;28;20200;-70
2021/11/06 11:33:38;;;;;;;9.73;4.87;;;9.50;99.90;;;;;;5034405;28;20199;-70
2021/11/06 11:36:05;;;;;;;6.70;4.57;;;9.50;99.90;;;;;;5051427;28;20634;-70
2021/11/06 11:38:35;;;;;;;7.53;4.20;;;9.50;99.90;;;;;;5044554;28;20199;-70
2021/11/06 11:41:32;;;;;;;7.00;4.30;;;9.60;99.90;;;;;;5046628;28;20216;-70
2021/11/06 11:44:11;;;;;;;6.93;4.63;;;9.60;99.90;;;;;;5061813;28;20195;-70
2021/11/06 11:46:41;;;;;;;9.00;4.40;;;9.60;99.90;;;;;;5045708;28;20241;-70
2021/11/06 11:49:09;;;;;;;7.90;4.10;;;9.60;99.90;;;;;;5040420;28;20207;-70
2021/11/06 11:51:36;;;;;;;5.77;3.70;;;9.60;99.90;;;;;;5036359;28;20194;-70
2021/11/06 11:54:06;;;;;;;7.63;4.27;;;9.60;99.90;;;;;;5050965;28;20203;-70
2021/11/06 11:56:38;;;;;;;8.47;4.27;;;9.70;99.90;;;;;;5049878;28;20196;-70
2021/11/06 11:59:06;;;;;;;7.13;3.90;;;9.70;99.90;;;;;;5050767;28;20187;-70
2021/11/06 12:01:34;;;;;;;6.40;3.70;;;9.70;99.90;;;;;;5052085;28;20218;-70
2021/11/06 12:04:17;;;;;;;7.53;4.13;;;9.70;99.90;;;;;;5049104;28;20206;-70
2021/11/06 12:06:45;;;;;;;7.40;3.80;;;9.60;99.90;;;;;;5040614;28;20302;-70
2021/11/06 12:09:25;;;;;;;9.20;5.00;;;9.70;99.90;;;;;;5051373;28;20210;-70
2021/11/06 12:11:54;;;;;;;8.57;5.20;;;9.70;99.90;;;;;;5050296;28;20661;-70
2021/11/06 12:14:27;;;;;;;8.87;5.33;;;9.70;99.90;;;;;;5052774;28;20202;-70
2021/11/06 12:16:57;;;;;;;11.53;5.10;;;9.80;99.90;;;;;;5037452;28;20199;-70
2021/11/06 12:19:40;;;;;;;9.20;4.90;;;9.80;99.90;;;;;;5043198;28;20704;-70
2021/11/06 12:22:18;;;;;;;8.93;4.30;;;9.90;99.90;;;;;;5044918;28;20206;-70
2021/11/06 12:24:48;;;;;;;9.57;5.17;;;10.00;99.90;;;;;;5037865;28;20202;-70
2021/11/06 12:27:32;;;;;;;10.20;5.07;;;10.00;99.90;;;;;;5048773;28;20201;-70
2021/11/06 12:29:59;;;;;;;8.20;4.27;;;10.10;99.90;;;;;;5048439;28;20187;-70
2021/11/06 12:32:29;;;;;;;6.17;3.67;;;10.10;99.90;;;;;;5049534;28;20203;-70
2021/11/06 12:34:58;;;;;;;7.07;3.80;;;10.20;99.90;;;;;;5043676;28;20203;-70
2021/11/06 12:37:59;;;;;;;8.93;4.07;;;10.40;99.90;;;;;;5042348;28;20206;-70
2021/11/06 12:40:38;;;;;;;10.70;5.20;;;10.50;99.90;;;;;;5039153;28;21680;-70
2021/11/06 12:43:23;;;;;;;7.13;3.90;;;10.50;99.90;;;;;;5049171;28;20203;-70
2021/11/06 12:45:55;;;;;;;8.83;3.57;;;10.50;99.90;;;;;;5046757;28;20195;-77
2021/11/06 12:48:23;;;;;;;8.40;3.80;;;10.60;99.90;;;;;;5037639;28;20215;-71
2021/11/06 12:51:01;;;;;;;6.40;3.70;;;10.60;99.90;;;;;;5045335;28;20194;-77
2021/11/06 12:53:30;;;;;;;6.83;3.67;;;10.60;99.90;;;;;;5044874;28;20656;-77
2021/11/06 12:56:02;;;;;;;5.83;3.47;;;10.60;99.90;;;;;;5039059;28;20203;-77
2021/11/06 12:58:31;;;;;;;6.43;3.50;;;10.60;99.90;;;;;;5040284;28;20195;-77
2021/11/06 13:00:57;;;;;;;7.70;3.10;;;10.70;99.90;;;;;;5051150;28;20229;-77
2021/11/06 13:03:38;;;;;;;6.90;3.63;;;10.60;99.90;;;;;;5051784;28;20210;-77